Time;durP1;ratioP1;P1;durP2;ratioP2;P2;SDS_P1;SDS_P2;PMS_P1;PMS_P2;Temp;Humidity;BMP_temperature;BMP_pressure;BME280_temperature;BME280_humidity;BME280_pressure;Samples;Min_cycle;Max_cycle;Signal;HPM_P1;HPM_P2
2023/06/15 00:00:06;;;;;;;3.33;1.80;;;14.10;99.90;;;;;;7345284;32;20176;-57
2023/06/15 00:04:08;;;;;;;5.20;2.37;;;14.10;99.90;;;;;;7344987;32;20107;-55
2023/06/15 00:08:10;;;;;;;7.03;2.22;;;14.10;99.90;;;;;;7344200;32;20449;-56
2023/06/15 00:12:12;;;;;;;5.35;2.17;;;14.10;99.90;;;;;;7344920;32;20115;-56
2023/06/15 00:16:14;;;;;;;7.78;2.12;;;14.00;99.90;;;;;;7344940;32;20525;-55
2023/06/15 00:20:17;;;;;;;3.72;1.85;;;14.00;99.90;;;;;;7344518;32;20257;-55
2023/06/15 00:24:19;;;;;;;3.62;2.10;;;13.90;99.90;;;;;;7344175;32;20121;-56
2023/06/15 00:28:21;;;;;;;5.00;2.10;;;13.70;99.90;;;;;;7343228;32;20214;-56
2023/06/15 00:32:23;;;;;;;4.60;2.15;;;13.60;99.90;;;;;;7340005;32;20119;-55
2023/06/15 00:36:26;;;;;;;2.60;1.90;;;13.40;99.90;;;;;;7343060;32;20507;-55
2023/06/15 00:40:28;;;;;;;5.72;2.72;;;13.30;99.90;;;;;;7346663;32;20236;-55
2023/06/15 00:44:30;;;;;;;3.75;2.15;;;13.20;99.90;;;;;;7345108;32;20122;-55
2023/06/15 00:48:32;;;;;;;3.10;2.20;;;13.10;99.90;;;;;;7345779;32;20139;-56
2023/06/15 00:52:35;;;;;;;3.15;2.50;;;13.00;99.90;;;;;;7342879;32;20127;-55
2023/06/15 00:56:37;;;;;;;4.47;2.45;;;13.00;99.90;;;;;;7344528;32;20269;-54
2023/06/15 01:00:39;;;;;;;8.88;2.50;;;12.90;99.90;;;;;;7343744;32;20268;-55
2023/06/15 01:04:41;;;;;;;4.32;2.30;;;12.90;99.90;;;;;;7344848;32;20222;-56
2023/06/15 01:08:47;;;;;;;5.80;2.60;;;12.70;99.90;;;;;;7344775;32;20130;-55
2023/06/15 01:12:54;;;;;;;5.00;2.62;;;12.60;99.90;;;;;;7344357;32;20134;-56
2023/06/15 01:17:01;;;;;;;3.33;2.50;;;12.60;99.90;;;;;;7341720;32;20193;-55
2023/06/15 01:21:06;;;;;;;;;;;12.50;99.90;;;;;;7345809;32;20236;-55
2023/06/15 01:25:34;;;;;;;5.12;2.60;;;12.40;99.90;;;;;;7342326;32;20097;-55
2023/06/15 01:29:36;;;;;;;5.87;2.83;;;12.40;99.90;;;;;;7334425;32;20163;-55
2023/06/15 01:33:50;;;;;;;6.95;2.65;;;12.40;99.90;;;;;;7341677;32;20228;-55
2023/06/15 01:37:52;;;;;;;5.65;2.55;;;12.30;99.90;;;;;;7341332;32;20243;-55
2023/06/15 01:41:55;;;;;;;3.95;2.60;;;12.20;99.90;;;;;;7335638;32;20111;-55
2023/06/15 01:45:57;;;;;;;5.82;2.47;;;12.20;99.90;;;;;;7341960;32;20118;-55
2023/06/15 01:50:01;;;;;;;4.97;3.05;;;12.20;99.90;;;;;;7345721;32;20684;-55
2023/06/15 01:54:03;;;;;;;7.43;3.05;;;12.20;99.90;;;;;;7342922;32;20119;-55
2023/06/15 01:58:05;;;;;;;4.53;2.95;;;12.20;99.90;;;;;;7341176;32;20184;-56
2023/06/15 02:02:07;;;;;;;4.37;2.97;;;12.20;99.90;;;;;;7340663;32;20110;-55
2023/06/15 02:06:09;;;;;;;5.47;2.70;;;12.20;99.90;;;;;;7339776;32;20498;-55
2023/06/15 02:10:11;;;;;;;4.75;2.67;;;12.20;99.90;;;;;;7333121;32;20499;-56
2023/06/15 02:14:13;;;;;;;4.05;2.35;;;12.20;99.90;;;;;;7339134;32;20142;-57
2023/06/15 02:18:15;;;;;;;3.15;2.47;;;12.20;99.90;;;;;;7337685;32;20209;-56
2023/06/15 02:22:16;;;;;;;4.07;2.80;;;12.10;99.90;;;;;;7339803;32;20103;-55
2023/06/15 02:26:18;;;;;;;6.15;2.92;;;12.10;99.90;;;;;;7339294;32;20138;-55
2023/06/15 02:30:20;;;;;;;3.90;2.75;;;11.90;99.90;;;;;;7337924;32;20146;-55
2023/06/15 02:34:24;;;;;;;4.15;2.90;;;12.00;99.90;;;;;;7345944;32;20115;-55
2023/06/15 02:38:26;;;;;;;4.05;3.15;;;11.80;99.90;;;;;;7335538;32;20099;-55
2023/06/15 02:42:28;;;;;;;6.45;3.12;;;11.70;99.90;;;;;;7339601;32;20369;-55
2023/06/15 02:46:30;;;;;;;8.70;3.55;;;11.70;99.90;;;;;;7342670;32;20231;-55
2023/06/15 02:50:31;;;;;;;3.05;2.62;;;11.60;99.90;;;;;;7350858;32;20213;-55
2023/06/15 02:54:34;;;;;;;5.75;3.08;;;11.70;99.90;;;;;;7349734;32;20107;-55
2023/06/15 02:58:37;;;;;;;4.72;2.85;;;11.60;99.90;;;;;;7348819;32;20476;-55
2023/06/15 03:02:38;;;;;;;7.18;2.72;;;11.50;99.90;;;;;;7344905;32;20266;-55
2023/06/15 03:06:41;;;;;;;5.35;3.15;;;11.50;99.90;;;;;;7356632;32;20261;-55
2023/06/15 03:10:43;;;;;;;5.43;2.65;;;11.40;99.90;;;;;;7346834;32;20244;-56
2023/06/15 03:14:50;;;;;;;4.05;2.90;;;11.50;99.90;;;;;;7356382;32;20125;-55
2023/06/15 03:18:54;;;;;;;4.22;3.05;;;11.50;99.90;;;;;;7349944;32;20555;-56
2023/06/15 03:22:56;;;;;;;4.37;2.72;;;11.50;99.90;;;;;;7355443;32;20104;-55
2023/06/15 03:27:01;;;;;;;5.78;3.25;;;11.40;99.90;;;;;;7348336;32;20190;-55
2023/06/15 03:31:05;;;;;;;6.15;3.20;;;11.50;99.90;;;;;;7347084;32;20190;-55
2023/06/15 03:35:07;;;;;;;3.55;2.95;;;11.40;99.90;;;;;;7356494;32;20141;-54
2023/06/15 03:39:09;;;;;;;4.78;3.15;;;11.40;99.90;;;;;;7349950;32;20120;-55
2023/06/15 03:43:11;;;;;;;5.28;3.42;;;11.40;99.90;;;;;;7348210;32;20593;-56
2023/06/15 03:47:13;;;;;;;4.45;3.72;;;11.30;99.90;;;;;;7354861;32;20111;-55
2023/06/15 03:51:14;;;;;;;6.75;3.60;;;11.30;99.90;;;;;;7353989;32;20115;-55
2023/06/15 03:55:16;;;;;;;5.30;3.00;;;11.40;99.90;;;;;;7349764;32;20178;-55
2023/06/15 03:59:19;;;;;;;4.68;3.10;;;11.40;99.90;;;;;;7350817;32;20131;-55
2023/06/15 04:03:20;;;;;;;4.78;3.40;;;11.40;99.90;;;;;;7358098;32;20104;-55
2023/06/15 04:07:22;;;;;;;5.90;3.33;;;11.60;99.90;;;;;;7348113;32;20198;-56
2023/06/15 04:11:24;;;;;;;4.30;3.05;;;11.60;99.90;;;;;;7354253;32;20159;-57
2023/06/15 04:15:26;;;;;;;5.60;3.30;;;11.60;99.90;;;;;;7355477;32;20246;-55
2023/06/15 04:19:28;;;;;;;4.30;2.97;;;11.70;99.90;;;;;;7355811;32;20209;-55
2023/06/15 04:23:29;;;;;;;4.03;3.00;;;11.80;99.90;;;;;;7348824;32;20156;-55
2023/06/15 04:27:34;;;;;;;4.37;3.10;;;11.90;99.90;;;;;;7355051;32;20171;-55
2023/06/15 04:31:36;;;;;;;6.12;3.03;;;12.00;99.90;;;;;;7351443;32;20476;-55
2023/06/15 04:35:46;;;;;;;5.40;3.33;;;12.30;99.90;;;;;;7343658;32;20262;-55
2023/06/15 04:39:47;;;;;;;4.43;3.05;;;12.40;99.90;;;;;;7351313;32;20209;-54
2023/06/15 04:43:49;;;;;;;4.43;3.33;;;12.70;99.90;;;;;;7352132;32;20119;-55
2023/06/15 04:47:51;;;;;;;3.62;2.70;;;13.00;99.90;;;;;;7351674;32;20228;-56
2023/06/15 04:51:53;;;;;;;5.43;3.03;;;13.30;99.90;;;;;;7349926;32;20152;-56
2023/06/15 04:55:54;;;;;;;3.70;3.10;;;13.70;99.90;;;;;;7354027;32;20500;-57
2023/06/15 04:59:56;;;;;;;5.20;2.92;;;14.10;99.90;;;;;;7354208;32;20203;-56
2023/06/15 05:03:58;;;;;;;7.35;3.80;;;14.50;99.90;;;;;;7343357;32;20629;-56
2023/06/15 05:08:00;;;;;;;8.07;3.67;;;15.10;99.90;;;;;;7353071;32;20130;-56
2023/06/15 05:12:02;;;;;;;6.82;3.28;;;15.70;99.90;;;;;;7345866;32;20214;-56
2023/06/15 05:16:04;;;;;;;6.40;3.50;;;16.30;99.90;;;;;;7351620;32;20657;-56
2023/06/15 05:20:06;;;;;;;6.32;3.20;;;16.20;99.90;;;;;;7350159;32;20479;-56
2023/06/15 05:24:08;;;;;;;7.35;3.37;;;15.90;99.90;;;;;;7352573;32;20189;-56
2023/06/15 05:28:10;;;;;;;7.97;3.28;;;15.90;99.90;;;;;;7352156;32;20282;-56
2023/06/15 05:32:12;;;;;;;6.57;3.40;;;15.90;99.90;;;;;;7342658;32;20130;-56
2023/06/15 05:36:14;;;;;;;5.80;3.05;;;16.00;99.90;;;;;;7344650;32;20143;-60
2023/06/15 05:40:32;;;;;;;5.45;3.12;;;16.10;99.90;;;;;;7336657;32;20119;-59
2023/06/15 05:44:34;;;;;;;4.87;3.25;;;16.30;99.90;;;;;;7352196;32;20574;-59
2023/06/15 05:48:35;;;;;;;4.47;2.53;;;16.50;99.90;;;;;;7345574;32;20106;-60
2023/06/15 05:52:37;;;;;;;4.55;2.97;;;16.80;99.90;;;;;;7347541;32;20103;-59
2023/06/15 05:56:39;;;;;;;8.15;3.10;;;17.00;99.90;;;;;;7348737;32;20123;-60
2023/06/15 06:00:41;;;;;;;5.32;3.10;;;17.20;99.90;;;;;;7340734;32;20123;-60
2023/06/15 06:04:43;;;;;;;5.07;2.55;;;17.40;99.90;;;;;;7353578;32;20253;-60
2023/06/15 06:08:45;;;;;;;7.00;3.30;;;17.60;99.90;;;;;;7339343;32;20143;-60
2023/06/15 06:12:47;;;;;;;5.75;3.00;;;17.80;99.90;;;;;;7345145;32;20123;-60
2023/06/15 06:16:49;;;;;;;7.40;3.20;;;18.10;99.90;;;;;;7341528;32;20626;-59
2023/06/15 06:20:51;;;;;;;6.28;3.10;;;18.40;99.90;;;;;;7348720;32;20176;-60
2023/06/15 06:24:52;;;;;;;4.47;2.70;;;18.90;99.90;;;;;;7339312;32;20126;-60
2023/06/15 06:28:55;;;;;;;5.68;2.65;;;19.10;99.90;;;;;;7345933;32;20179;-59
2023/06/15 06:32:57;;;;;;;6.50;2.65;;;19.40;99.90;;;;;;7343104;32;20153;-60
2023/06/15 06:37:05;;;;;;;6.50;3.78;;;19.60;99.90;;;;;;7352255;32;20103;-59
2023/06/15 06:41:07;;;;;;;6.40;3.10;;;19.90;99.90;;;;;;7352642;32;20555;-60
2023/06/15 06:45:09;;;;;;;7.90;2.83;;;20.10;99.90;;;;;;7345300;32;20671;-61
2023/06/15 06:49:10;;;;;;;6.62;3.08;;;20.30;99.90;;;;;;7340682;32;20198;-61
2023/06/15 06:53:12;;;;;;;6.53;2.70;;;20.40;99.90;;;;;;7346686;32;20198;-60
2023/06/15 06:57:14;;;;;;;6.07;2.92;;;20.50;99.90;;;;;;7349907;32;20614;-61
2023/06/15 07:01:16;;;;;;;7.22;2.65;;;20.80;99.90;;;;;;7343637;32;20242;-60
2023/06/15 07:05:19;;;;;;;7.87;2.92;;;20.90;99.90;;;;;;7340006;32;20254;-61
2023/06/15 07:09:21;;;;;;;7.75;2.80;;;20.90;99.90;;;;;;7339576;32;20155;-57
2023/06/15 07:13:23;;;;;;;6.40;2.67;;;21.30;99.90;;;;;;7347707;32;21158;-56
2023/06/15 07:17:25;;;;;;;8.20;2.70;;;21.50;99.90;;;;;;7345671;32;20103;-57
2023/06/15 07:21:26;;;;;;;6.47;2.50;;;21.70;99.90;;;;;;7338744;32;20107;-57
2023/06/15 07:25:28;;;;;;;5.93;2.55;;;21.80;99.90;;;;;;7344152;32;20755;-56
2023/06/15 07:29:30;;;;;;;9.52;2.78;;;21.90;99.90;;;;;;7347366;32;20137;-56
2023/06/15 07:33:32;;;;;;;7.30;2.70;;;21.90;99.90;;;;;;7348063;32;20254;-57
2023/06/15 07:37:33;;;;;;;3.17;2.37;;;22.10;99.90;;;;;;7346467;32;20249;-57
2023/06/15 07:41:35;;;;;;;5.47;2.58;;;22.20;99.90;;;;;;7351849;32;20133;-57
2023/06/15 07:45:37;;;;;;;11.23;3.00;;;22.40;99.90;;;;;;7352901;32;20138;-57
2023/06/15 07:49:39;;;;;;;5.57;3.12;;;22.60;99.90;;;;;;7347607;32;20126;-56
2023/06/15 07:53:47;;;;;;;6.05;2.95;;;22.80;99.90;;;;;;7355312;32;20178;-56
2023/06/15 07:57:50;;;;;;;5.07;2.87;;;22.90;99.90;;;;;;7346994;32;20096;-57
2023/06/15 08:01:52;;;;;;;3.72;2.60;;;23.40;99.60;;;;;;7356089;32;20099;-57
2023/06/15 08:05:54;;;;;;;6.70;2.83;;;23.50;99.20;;;;;;7347770;32;20288;-57
2023/06/15 08:09:55;;;;;;;7.90;2.95;;;23.70;99.70;;;;;;7349227;32;20286;-56
2023/06/15 08:13:57;;;;;;;10.13;3.05;;;23.70;97.70;;;;;;7348089;32;20168;-56
2023/06/15 08:17:59;;;;;;;7.50;2.92;;;23.80;99.30;;;;;;7341242;32;20345;-56
2023/06/15 08:22:01;;;;;;;5.12;2.62;;;23.40;94.90;;;;;;7350387;32;20130;-57
2023/06/15 08:26:02;;;;;;;6.40;2.70;;;23.70;96.10;;;;;;7348733;32;20213;-56
2023/06/15 08:30:05;;;;;;;5.25;2.70;;;24.20;95.80;;;;;;7348581;32;20274;-56
2023/06/15 08:34:10;;;;;;;7.00;2.80;;;24.40;95.80;;;;;;7355560;32;20220;-56
2023/06/15 08:38:12;;;;;;;4.28;2.50;;;24.40;94.50;;;;;;7348727;32;20156;-57
2023/06/15 08:42:16;;;;;;;5.00;2.60;;;24.80;93.70;;;;;;7352844;32;20447;-57
2023/06/15 08:46:18;;;;;;;2.70;2.30;;;25.10;88.90;;;;;;7354715;32;20111;-57
2023/06/15 08:50:20;;;;;;;6.43;2.60;;;25.30;90.60;;;;;;7344258;32;20186;-57
2023/06/15 08:54:27;;;;;;;5.87;2.42;;;25.80;86.20;;;;;;7344676;32;20181;-57
2023/06/15 08:58:29;;;;;;;5.15;2.50;;;26.10;84.70;;;;;;7345647;32;20655;-58
2023/06/15 09:02:32;;;;;;;8.38;2.45;;;25.80;82.90;;;;;;7346373;32;20111;-58
2023/06/15 09:06:34;;;;;;;4.85;2.50;;;26.20;83.10;;;;;;7355147;32;20107;-58
2023/06/15 09:10:38;;;;;;;7.40;2.58;;;26.80;77.60;;;;;;7341024;32;20126;-57
2023/06/15 09:14:40;;;;;;;7.15;2.90;;;27.50;77.40;;;;;;7347415;32;20198;-59
2023/06/15 09:18:51;;;;;;;8.52;2.97;;;27.80;70.20;;;;;;7347312;32;20177;-59
2023/06/15 09:23:04;;;;;;;7.43;2.50;;;27.90;70.00;;;;;;7346078;32;20127;-58
2023/06/15 09:27:15;;;;;;;8.95;2.70;;;27.80;65.30;;;;;;7345893;32;20275;-58
2023/06/15 09:31:31;;;;;;;4.18;2.60;;;27.40;66.80;;;;;;7349943;32;20463;-58
2023/06/15 09:35:33;;;;;;;3.45;2.67;;;27.80;63.80;;;;;;7343468;32;20119;-57
2023/06/15 09:39:34;;;;;;;3.70;2.45;;;27.80;65.00;;;;;;7341668;32;20407;-57
2023/06/15 09:43:39;;;;;;;6.97;2.70;;;28.50;68.40;;;;;;7340367;32;20129;-58
2023/06/15 09:47:40;;;;;;;7.80;3.08;;;29.10;61.00;;;;;;7351955;32;20519;-59
2023/06/15 09:51:47;;;;;;;6.15;2.58;;;29.60;59.90;;;;;;7345147;32;20135;-58
2023/06/15 09:55:50;;;;;;;8.52;2.80;;;28.80;58.20;;;;;;7351090;32;20129;-58
2023/06/15 09:59:52;;;;;;;5.47;2.75;;;28.70;57.10;;;;;;7347594;32;20295;-59
2023/06/15 10:03:56;;;;;;;4.28;2.55;;;28.60;62.10;;;;;;7350134;32;20135;-57
2023/06/15 10:08:01;;;;;;;3.28;2.58;;;27.60;61.80;;;;;;7338985;32;20122;-58
2023/06/15 10:12:16;;;;;;;5.03;2.35;;;27.80;60.60;;;;;;7341990;32;20164;-58
2023/06/15 10:16:20;;;;;;;11.10;3.30;;;28.10;60.50;;;;;;7345045;32;20131;-59
2023/06/15 10:20:27;;;;;;;9.38;2.90;;;29.00;59.50;;;;;;7355280;32;20134;-57
2023/06/15 10:24:29;;;;;;;7.95;2.72;;;28.60;58.00;;;;;;7347863;32;20243;-58
2023/06/15 10:28:36;;;;;;;8.35;2.75;;;28.70;56.70;;;;;;7349708;32;20190;-59
2023/06/15 10:33:03;;;;;;;3.97;2.70;;;29.00;62.50;;;;;;7346907;32;20148;-57
2023/06/15 10:37:26;;;;;;;4.17;2.60;;;29.30;60.10;;;;;;7347021;32;20160;-58
2023/06/15 10:41:28;;;;;;;4.62;2.40;;;29.60;56.80;;;;;;7348043;32;20305;-58
2023/06/15 10:45:32;;;;;;;5.50;2.50;;;29.10;56.50;;;;;;7347223;32;20255;-58
2023/06/15 10:49:34;;;;;;;8.77;2.62;;;29.80;54.10;;;;;;7336037;32;20111;-57
2023/06/15 10:53:41;;;;;;;5.05;2.62;;;29.70;54.20;;;;;;7346242;32;20131;-58
2023/06/15 10:57:43;;;;;;;7.65;2.40;;;28.40;57.90;;;;;;7342456;32;20581;-57
2023/06/15 11:01:45;;;;;;;7.20;2.42;;;27.60;58.80;;;;;;7351682;32;20111;-58
2023/06/15 11:05:47;;;;;;;8.50;2.80;;;27.20;59.90;;;;;;7342744;32;20147;-58
2023/06/15 11:09:48;;;;;;;7.10;2.85;;;27.70;58.10;;;;;;7348355;32;20104;-57
2023/06/15 11:14:00;;;;;;;6.40;2.40;;;28.00;56.60;;;;;;7358691;32;20266;-57
2023/06/15 11:18:03;;;;;;;5.95;2.53;;;28.10;57.20;;;;;;7344039;32;20485;-59
2023/06/15 11:22:06;;;;;;;6.22;2.70;;;28.60;58.30;;;;;;7355617;32;20092;-58
2023/06/15 11:26:14;;;;;;;5.28;2.90;;;29.00;55.60;;;;;;7345917;32;20138;-58
2023/06/15 11:30:16;;;;;;;8.77;3.15;;;29.70;56.80;;;;;;7348168;32;20164;-58
2023/06/15 11:34:18;;;;;;;7.22;3.05;;;29.00;55.30;;;;;;7351480;32;20247;-58
2023/06/15 11:38:25;;;;;;;6.37;2.45;;;27.40;56.70;;;;;;7343886;32;20154;-58
2023/06/15 11:42:27;;;;;;;4.50;2.45;;;27.20;59.70;;;;;;7355457;32;20127;-57
2023/06/15 11:46:29;;;;;;;6.70;2.40;;;27.80;57.90;;;;;;7347972;32;20123;-57
2023/06/15 11:50:31;;;;;;;5.28;2.60;;;28.40;56.50;;;;;;7349707;32;20227;-58
2023/06/15 11:54:33;;;;;;;3.25;2.60;;;27.40;52.80;;;;;;7348982;32;20167;-58
2023/06/15 11:58:55;;;;;;;4.65;2.47;;;26.90;54.40;;;;;;7344536;32;20107;-58
2023/06/15 12:02:56;;;;;;;7.05;2.92;;;26.20;58.00;;;;;;7345670;32;20744;-58
2023/06/15 12:07:04;;;;;;;4.15;2.25;;;27.00;58.00;;;;;;7340670;32;20194;-57
2023/06/15 12:11:06;;;;;;;4.68;2.70;;;28.20;55.00;;;;;;7345311;32;20459;-58
2023/06/15 12:15:08;;;;;;;4.10;2.70;;;28.90;52.20;;;;;;7356210;32;20205;-58
2023/06/15 12:19:10;;;;;;;3.90;2.60;;;29.90;49.60;;;;;;7348220;32;20455;-58
2023/06/15 12:23:25;;;;;;;5.40;2.50;;;30.40;48.30;;;;;;7353457;32;20115;-57
2023/06/15 12:27:29;;;;;;;3.90;2.72;;;31.00;48.50;;;;;;7345142;32;20506;-58
2023/06/15 12:31:33;;;;;;;4.15;2.40;;;29.70;47.40;;;;;;7351793;32;20125;-59
2023/06/15 12:35:38;;;;;;;4.80;2.58;;;29.30;49.30;;;;;;7350356;32;20107;-58
2023/06/15 12:39:40;;;;;;;6.50;2.50;;;29.80;50.90;;;;;;7345275;32;20197;-58
2023/06/15 12:43:45;;;;;;;6.47;2.50;;;30.50;47.80;;;;;;7347114;32;20251;-58
2023/06/15 12:47:46;;;;;;;4.90;2.45;;;30.20;47.80;;;;;;7350696;32;20617;-58
2023/06/15 12:51:49;;;;;;;4.18;2.50;;;29.40;51.00;;;;;;7355380;32;20112;-57
2023/06/15 12:55:54;;;;;;;6.32;2.50;;;28.40;50.80;;;;;;7354198;32;20158;-57
2023/06/15 12:59:56;;;;;;;4.75;2.45;;;28.30;52.80;;;;;;7351522;32;20258;-57
2023/06/15 13:03:58;;;;;;;5.82;2.50;;;29.00;51.40;;;;;;7346951;32;20099;-57
2023/06/15 13:08:01;;;;;;;6.00;2.75;;;29.50;47.10;;;;;;7342852;32;20195;-58
2023/06/15 13:12:03;;;;;;;7.10;2.90;;;29.80;48.10;;;;;;7348456;32;20161;-58
2023/06/15 13:16:05;;;;;;;4.95;2.30;;;30.60;47.90;;;;;;7353619;32;20107;-57
2023/06/15 13:20:08;;;;;;;8.93;2.60;;;30.20;49.50;;;;;;7349481;32;20107;-57
2023/06/15 13:24:10;;;;;;;3.42;2.22;;;29.30;49.20;;;;;;7346817;32;20249;-57
2023/06/15 13:28:12;;;;;;;4.10;2.40;;;28.30;49.50;;;;;;7342152;32;20502;-58
2023/06/15 13:32:15;;;;;;;7.22;3.58;;;27.90;52.90;;;;;;7338597;32;20902;-58
2023/06/15 13:36:17;;;;;;;6.28;2.97;;;27.70;53.70;;;;;;7355183;32;20198;-58
2023/06/15 13:40:18;;;;;;;7.00;2.17;;;27.40;53.20;;;;;;7352463;32;20236;-58
2023/06/15 13:44:21;;;;;;;3.72;2.35;;;26.80;53.70;;;;;;7353772;32;20158;-58
2023/06/15 13:48:22;;;;;;;5.70;2.53;;;26.80;57.10;;;;;;7348881;32;20128;-58
2023/06/15 13:52:24;;;;;;;6.82;3.72;;;27.10;53.90;;;;;;7350838;32;20172;-58
2023/06/15 13:56:26;;;;;;;4.80;2.35;;;27.10;57.00;;;;;;7343965;32;20108;-58
2023/06/15 14:00:28;;;;;;;4.60;2.67;;;26.70;55.00;;;;;;7336999;32;20549;-59
2023/06/15 14:04:30;;;;;;;8.32;2.00;;;26.80;54.60;;;;;;7349535;32;20214;-58
2023/06/15 14:08:32;;;;;;;5.85;3.65;;;26.60;55.90;;;;;;7340307;32;20108;-58
2023/06/15 14:12:34;;;;;;;4.50;2.42;;;26.80;56.20;;;;;;7349466;32;20127;-59
2023/06/15 14:16:36;;;;;;;7.50;2.60;;;27.70;55.70;;;;;;7339463;32;20139;-58
2023/06/15 14:20:38;;;;;;;7.12;2.75;;;28.90;50.60;;;;;;7348922;32;20175;-58
2023/06/15 14:24:40;;;;;;;6.65;2.20;;;29.60;49.70;;;;;;7345555;32;20560;-58
2023/06/15 14:28:42;;;;;;;4.72;2.40;;;30.50;49.40;;;;;;7343217;32;20104;-58
2023/06/15 14:32:44;;;;;;;3.78;2.30;;;29.90;48.70;;;;;;7340059;32;20107;-59
2023/06/15 14:36:47;;;;;;;10.65;2.25;;;29.00;50.90;;;;;;7339010;32;20131;-58
2023/06/15 14:40:49;;;;;;;8.18;2.65;;;28.00;52.20;;;;;;7343072;32;20111;-58
2023/06/15 14:44:53;;;;;;;3.85;2.58;;;27.20;54.50;;;;;;7342150;32;20142;-58
2023/06/15 14:48:55;;;;;;;5.87;2.30;;;26.80;56.20;;;;;;7345303;32;20119;-58
2023/06/15 14:52:57;;;;;;;4.72;2.55;;;26.70;56.30;;;;;;7350481;32;20230;-58
2023/06/15 14:56:59;;;;;;;6.57;2.87;;;27.30;53.20;;;;;;7345975;32;20217;-58
2023/06/15 15:01:00;;;;;;;7.00;2.40;;;28.30;54.70;;;;;;7349914;32;20326;-58
2023/06/15 15:05:03;;;;;;;4.37;2.35;;;28.10;53.80;;;;;;7334485;32;20107;-59
2023/06/15 15:09:05;;;;;;;5.07;2.50;;;28.80;52.20;;;;;;7341588;32;20662;-58
2023/06/15 15:13:06;;;;;;;5.12;2.53;;;29.60;52.00;;;;;;7340649;32;20164;-58
2023/06/15 15:17:08;;;;;;;7.93;2.60;;;29.60;48.70;;;;;;7352217;32;20575;-61
2023/06/15 15:21:10;;;;;;;5.05;2.20;;;29.70;47.50;;;;;;7353415;32;20122;-61
2023/06/15 15:25:12;;;;;;;4.10;2.20;;;28.70;51.80;;;;;;7353603;32;20215;-61
2023/06/15 15:29:14;;;;;;;4.07;2.53;;;27.80;51.30;;;;;;7357131;32;20103;-60
2023/06/15 15:33:16;;;;;;;3.47;2.40;;;27.30;52.30;;;;;;7349200;32;20127;-58
2023/06/15 15:37:17;;;;;;;4.28;2.22;;;26.70;55.00;;;;;;7348133;32;20187;-58
2023/06/15 15:41:21;;;;;;;4.37;2.53;;;26.40;54.70;;;;;;7350996;32;20103;-58
2023/06/15 15:45:23;;;;;;;5.32;2.67;;;26.10;54.50;;;;;;7337092;32;20207;-59
2023/06/15 15:49:24;;;;;;;4.47;2.40;;;26.00;55.10;;;;;;7354419;32;20570;-58
2023/06/15 15:53:26;;;;;;;3.80;2.25;;;25.90;54.70;;;;;;7343087;32;21055;-59
2023/06/15 15:57:28;;;;;;;3.70;2.22;;;25.60;56.30;;;;;;7352344;32;20195;-58
2023/06/15 16:01:30;;;;;;;5.82;2.25;;;25.60;56.20;;;;;;7350761;32;20294;-58
2023/06/15 16:05:32;;;;;;;4.70;2.70;;;25.50;57.40;;;;;;7348777;32;20154;-59
2023/06/15 16:09:33;;;;;;;5.97;3.22;;;25.60;57.30;;;;;;7345294;32;20115;-58
2023/06/15 16:13:35;;;;;;;5.53;2.50;;;25.70;60.70;;;;;;7344010;32;20149;-57
2023/06/15 16:17:37;;;;;;;4.10;2.20;;;25.60;56.50;;;;;;7345437;32;20178;-58
2023/06/15 16:21:39;;;;;;;3.28;2.50;;;25.70;57.10;;;;;;7345739;32;20209;-58
2023/06/15 16:25:41;;;;;;;4.65;2.58;;;25.60;54.70;;;;;;7342168;32;20206;-58
2023/06/15 16:29:42;;;;;;;4.62;2.53;;;25.30;54.90;;;;;;7345254;32;20486;-57
2023/06/15 16:33:44;;;;;;;4.65;2.47;;;25.10;56.00;;;;;;7349735;32;20155;-58
2023/06/15 16:37:46;;;;;;;4.95;2.72;;;25.00;58.20;;;;;;7346315;32;20560;-58
2023/06/15 16:41:48;;;;;;;6.37;3.30;;;24.80;57.60;;;;;;7337259;32;20126;-58
2023/06/15 16:45:50;;;;;;;7.30;2.70;;;24.80;57.00;;;;;;7343584;32;20601;-57
2023/06/15 16:49:52;;;;;;;5.45;2.67;;;24.70;58.80;;;;;;7337465;32;20202;-59
2023/06/15 16:53:54;;;;;;;3.58;2.33;;;24.60;62.00;;;;;;7353471;32;20133;-58
2023/06/15 16:57:56;;;;;;;4.82;2.28;;;24.50;60.50;;;;;;7348581;32;20111;-58
2023/06/15 17:01:58;;;;;;;5.07;2.70;;;24.50;61.40;;;;;;7351544;32;20206;-57
2023/06/15 17:06:00;;;;;;;6.28;2.47;;;24.40;63.90;;;;;;7347107;32;20131;-57
2023/06/15 17:10:02;;;;;;;3.87;2.83;;;24.30;61.90;;;;;;7348047;32;20242;-58
2023/06/15 17:14:04;;;;;;;6.53;2.70;;;24.10;61.70;;;;;;7351050;32;20124;-57
2023/06/15 17:18:06;;;;;;;10.18;2.42;;;24.00;64.40;;;;;;7352471;32;20142;-57
2023/06/15 17:22:09;;;;;;;8.18;3.17;;;23.80;66.90;;;;;;7348171;32;20107;-58
2023/06/15 17:26:11;;;;;;;4.68;2.33;;;23.60;66.70;;;;;;7353998;32;20287;-58
2023/06/15 17:30:14;;;;;;;4.75;2.55;;;23.50;69.30;;;;;;7342442;32;20339;-58
2023/06/15 17:34:16;;;;;;;8.48;3.10;;;23.40;72.10;;;;;;7349659;32;20119;-58
2023/06/15 17:38:17;;;;;;;5.57;2.65;;;23.60;75.90;;;;;;7347245;32;20145;-57
2023/06/15 17:42:19;;;;;;;6.80;3.08;;;23.40;71.80;;;;;;7343275;32;20246;-58
2023/06/15 17:46:21;;;;;;;11.23;2.72;;;23.40;71.40;;;;;;7344563;32;20127;-59
2023/06/15 17:50:23;;;;;;;4.07;2.70;;;23.40;71.60;;;;;;7346009;32;20501;-58
2023/06/15 17:54:25;;;;;;;3.95;2.58;;;23.30;69.60;;;;;;7347156;32;20115;-58
2023/06/15 17:58:28;;;;;;;9.57;3.10;;;23.30;72.50;;;;;;7343982;32;20241;-58
2023/06/15 18:02:30;;;;;;;4.30;2.22;;;23.30;71.90;;;;;;7350860;32;20107;-58
2023/06/15 18:06:33;;;;;;;10.32;2.80;;;23.10;72.50;;;;;;7347968;32;20138;-58
2023/06/15 18:10:35;;;;;;;5.07;3.20;;;23.00;73.70;;;;;;7346066;32;20188;-58
2023/06/15 18:14:38;;;;;;;6.82;2.72;;;23.00;77.00;;;;;;7341192;32;20159;-58
2023/06/15 18:18:40;;;;;;;6.82;2.92;;;23.00;80.60;;;;;;7339800;32;20165;-58
2023/06/15 18:22:41;;;;;;;5.65;2.60;;;22.90;88.90;;;;;;7349431;32;20595;-58
2023/06/15 18:26:47;;;;;;;3.42;2.53;;;22.70;91.90;;;;;;7345231;32;20764;-58
2023/06/15 18:30:48;;;;;;;5.15;2.60;;;22.60;92.00;;;;;;7338483;32;20524;-58
2023/06/15 18:34:51;;;;;;;8.00;3.50;;;22.40;93.00;;;;;;7340674;32;20123;-58
2023/06/15 18:38:52;;;;;;;6.75;2.90;;;22.20;94.50;;;;;;7342590;32;20164;-58
2023/06/15 18:42:54;;;;;;;8.73;3.50;;;22.00;95.90;;;;;;7341196;32;20214;-58
2023/06/15 18:46:56;;;;;;;5.40;4.65;;;21.80;98.60;;;;;;7343773;32;20263;-58
2023/06/15 18:50:59;;;;;;;7.03;3.00;;;21.70;99.90;;;;;;7340281;32;20115;-58
2023/06/15 18:55:02;;;;;;;4.30;3.10;;;21.60;99.90;;;;;;7337258;32;20176;-59
2023/06/15 18:59:04;;;;;;;7.22;3.47;;;21.40;99.90;;;;;;7350423;32;20127;-58
2023/06/15 19:03:05;;;;;;;6.93;2.95;;;21.30;99.90;;;;;;7337497;32;20565;-58
2023/06/15 19:07:07;;;;;;;7.00;2.40;;;21.20;99.90;;;;;;7337461;32;20520;-58
2023/06/15 19:11:09;;;;;;;5.50;2.70;;;20.90;99.90;;;;;;7344387;32;20536;-58
2023/06/15 19:15:11;;;;;;;8.98;3.08;;;20.70;99.90;;;;;;7329876;32;20284;-60
2023/06/15 19:19:13;;;;;;;8.77;3.08;;;20.60;99.90;;;;;;7339298;32;20130;-60
2023/06/15 19:23:15;;;;;;;8.95;2.97;;;20.30;99.90;;;;;;7337600;32;20107;-58
2023/06/15 19:27:17;;;;;;;6.40;3.03;;;20.00;99.90;;;;;;7348234;32;20129;-59
2023/06/15 19:31:19;;;;;;;6.60;3.50;;;19.80;99.90;;;;;;7346816;32;20126;-58
2023/06/15 19:35:20;;;;;;;6.65;3.67;;;19.50;99.90;;;;;;7347570;32;20333;-59
2023/06/15 19:39:23;;;;;;;9.77;3.80;;;19.30;99.90;;;;;;7340933;32;20107;-58
2023/06/15 19:43:26;;;;;;;10.05;3.03;;;19.10;99.90;;;;;;7345328;32;20134;-58
2023/06/15 19:47:29;;;;;;;7.82;3.55;;;18.90;99.90;;;;;;7350450;32;20303;-58
2023/06/15 19:51:31;;;;;;;11.65;3.95;;;18.70;99.90;;;;;;7342291;32;20190;-58
2023/06/15 19:55:32;;;;;;;12.93;6.43;;;18.60;99.90;;;;;;7347295;32;20198;-60
2023/06/15 19:59:36;;;;;;;8.32;3.50;;;18.30;99.90;;;;;;7348937;32;20589;-58
2023/06/15 20:03:38;;;;;;;7.10;3.62;;;18.10;99.90;;;;;;7350229;32;20266;-58
2023/06/15 20:07:40;;;;;;;7.55;3.35;;;18.00;99.90;;;;;;7353128;32;20126;-57
2023/06/15 20:11:42;;;;;;;8.13;3.40;;;17.70;99.90;;;;;;7353096;32;20257;-58
2023/06/15 20:15:44;;;;;;;7.80;3.55;;;17.60;99.90;;;;;;7352014;32;20160;-57
2023/06/15 20:19:46;;;;;;;6.78;3.60;;;17.40;99.90;;;;;;7354478;32;20280;-57
2023/06/15 20:23:47;;;;;;;6.45;3.78;;;17.20;99.90;;;;;;7347957;32;20179;-57
2023/06/15 20:27:49;;;;;;;6.03;3.55;;;17.10;99.90;;;;;;7341623;32;20142;-57
2023/06/15 20:31:51;;;;;;;6.00;3.65;;;16.90;99.90;;;;;;7352077;32;21058;-57
2023/06/15 20:35:53;;;;;;;5.25;3.53;;;16.70;99.90;;;;;;7347658;32;20899;-57
2023/06/15 20:39:54;;;;;;;7.85;3.90;;;16.50;99.90;;;;;;7339321;32;20107;-57
2023/06/15 20:43:56;;;;;;;8.93;3.70;;;16.40;99.90;;;;;;7344175;32;20123;-57
2023/06/15 20:47:58;;;;;;;7.68;3.42;;;16.20;99.90;;;;;;7351991;32;20504;-57
2023/06/15 20:52:00;;;;;;;6.22;3.83;;;16.10;99.90;;;;;;7346350;32;20585;-57
2023/06/15 20:56:04;;;;;;;8.20;3.70;;;16.00;99.90;;;;;;7351438;32;20328;-58
2023/06/15 21:00:08;;;;;;;5.40;3.75;;;15.80;99.90;;;;;;7342659;32;20223;-57
2023/06/15 21:04:15;;;;;;;9.52;3.72;;;15.80;99.90;;;;;;7349902;32;20186;-56